Time;durP1;ratioP1;P1;durP2;ratioP2;P2;SDS_P1;SDS_P2;PMS_P1;PMS_P2;Temp;Humidity;BMP_temperature;BMP_pressure;BME280_temperature;BME280_humidity;BME280_pressure;Samples;Min_cycle;Max_cycle;Signal;HPM_P1;HPM_P2
2023/07/30 00:01:58;;;;;;;2.08;1.95;;;21.70;90.60;;;;;;5007951;28;20192;-70
2023/07/30 00:04:23;;;;;;;1.85;1.75;;;21.70;90.50;;;;;;4970531;28;20192;-71
2023/07/30 00:06:49;;;;;;;2.45;1.90;;;21.70;90.50;;;;;;4988512;28;20219;-70
2023/07/30 00:09:15;;;;;;;1.90;1.80;;;21.70;90.50;;;;;;4967467;28;20208;-70
2023/07/30 00:11:40;;;;;;;2.10;1.90;;;21.70;90.50;;;;;;4983656;28;20188;-69
2023/07/30 00:14:06;;;;;;;2.28;2.08;;;21.70;90.50;;;;;;4991602;28;20191;-69
2023/07/30 00:16:32;;;;;;;2.03;1.92;;;21.70;90.50;;;;;;4979425;28;20207;-70
2023/07/30 00:18:57;;;;;;;2.67;2.10;;;21.70;90.50;;;;;;4978934;28;20212;-70
2023/07/30 00:21:23;;;;;;;2.00;1.80;;;21.70;90.40;;;;;;4986117;28;20196;-70
2023/07/30 00:23:49;;;;;;;2.08;1.98;;;21.70;90.50;;;;;;5004418;28;20190;-70
2023/07/30 00:26:15;;;;;;;2.17;1.90;;;21.70;90.50;;;;;;4976891;28;20193;-70
2023/07/30 00:28:40;;;;;;;1.90;1.80;;;21.70;90.50;;;;;;4985319;28;20185;-70
2023/07/30 00:31:06;;;;;;;1.98;1.67;;;21.70;90.50;;;;;;4983118;28;20245;-70
2023/07/30 00:33:32;;;;;;;1.50;1.40;;;21.70;90.50;;;;;;4991395;28;20191;-70
2023/07/30 00:35:57;;;;;;;1.70;1.60;;;21.70;90.40;;;;;;4974093;28;20196;-70
2023/07/30 00:38:23;;;;;;;2.05;1.75;;;21.60;90.40;;;;;;4968019;28;20563;-70
2023/07/30 00:40:49;;;;;;;1.90;1.80;;;21.70;90.40;;;;;;4989156;28;20200;-70
2023/07/30 00:43:15;;;;;;;1.83;1.73;;;21.70;90.40;;;;;;4961174;28;20651;-70
2023/07/30 00:45:44;;;;;;;1.70;1.60;;;21.70;90.40;;;;;;4988055;28;20211;-70
2023/07/30 00:48:11;;;;;;;1.77;1.67;;;21.70;90.70;;;;;;4994567;28;20212;-70
2023/07/30 00:50:39;;;;;;;1.92;1.80;;;21.70;90.40;;;;;;4983176;28;20232;-69
2023/07/30 00:53:05;;;;;;;2.13;1.92;;;21.70;90.30;;;;;;4974377;28;20309;-70
2023/07/30 00:55:31;;;;;;;1.70;1.60;;;21.60;90.30;;;;;;4990635;28;20185;-70
2023/07/30 00:57:58;;;;;;;1.80;1.70;;;21.60;90.30;;;;;;4994581;28;20205;-70
2023/07/30 01:00:24;;;;;;;2.03;1.92;;;21.60;90.30;;;;;;4998388;28;20218;-69
2023/07/30 01:02:51;;;;;;;1.73;1.63;;;21.60;90.30;;;;;;4980837;28;20203;-70
2023/07/30 01:05:18;;;;;;;2.20;1.90;;;21.60;90.20;;;;;;4978021;28;20197;-69
2023/07/30 01:07:43;;;;;;;1.70;1.60;;;21.60;90.30;;;;;;4986003;28;20207;-69
2023/07/30 01:10:09;;;;;;;1.80;1.70;;;21.60;90.20;;;;;;4975070;28;20307;-69
2023/07/30 01:12:37;;;;;;;2.15;1.95;;;21.60;90.20;;;;;;4985238;28;20184;-70
2023/07/30 01:15:04;;;;;;;2.33;2.13;;;21.60;90.20;;;;;;5006577;28;20188;-70
2023/07/30 01:17:30;;;;;;;1.70;1.60;;;21.60;90.20;;;;;;4982466;28;20730;-69
2023/07/30 01:19:56;;;;;;;2.10;1.90;;;21.60;90.20;;;;;;4997544;28;20264;-69
2023/07/30 01:22:23;;;;;;;2.03;1.90;;;21.60;90.20;;;;;;4992184;28;20226;-69
2023/07/30 01:24:49;;;;;;;2.03;1.83;;;21.60;90.20;;;;;;4994292;28;20184;-69
2023/07/30 01:27:27;;;;;;;1.90;1.80;;;21.60;90.20;;;;;;5010279;28;20215;-69
2023/07/30 01:30:08;;;;;;;1.80;1.70;;;21.60;90.10;;;;;;4958470;28;20291;-69
2023/07/30 01:32:35;;;;;;;2.22;2.08;;;21.60;90.10;;;;;;5000472;28;20283;-69
2023/07/30 01:35:06;;;;;;;2.22;2.00;;;21.60;90.10;;;;;;4975055;28;20200;-69
2023/07/30 01:37:33;;;;;;;1.73;1.63;;;21.60;90.20;;;;;;4986143;28;20287;-69
2023/07/30 01:40:01;;;;;;;2.00;1.90;;;21.60;90.10;;;;;;4994795;28;20281;-69
2023/07/30 01:42:30;;;;;;;2.10;1.85;;;21.60;90.10;;;;;;4978271;28;20203;-70
2023/07/30 01:44:56;;;;;;;1.90;1.80;;;21.60;90.10;;;;;;4991549;28;20189;-69
2023/07/30 01:47:22;;;;;;;1.88;1.77;;;21.60;90.10;;;;;;5013020;28;20214;-70
2023/07/30 01:49:47;;;;;;;2.08;1.98;;;21.60;90.10;;;;;;5001164;28;20220;-69
2023/07/30 01:52:13;;;;;;;3.00;1.90;;;21.60;90.10;;;;;;4994796;28;20188;-69
2023/07/30 01:54:39;;;;;;;2.33;1.90;;;21.60;90.10;;;;;;4978384;28;20185;-69
2023/07/30 01:57:05;;;;;;;1.75;1.65;;;21.60;90.10;;;;;;4969203;28;20211;-70
2023/07/30 01:59:31;;;;;;;1.73;1.63;;;21.60;90.10;;;;;;4986751;28;20305;-70
2023/07/30 02:01:57;;;;;;;1.90;1.80;;;21.60;90.00;;;;;;5008572;28;20188;-70
2023/07/30 02:04:23;;;;;;;1.73;1.63;;;21.60;90.00;;;;;;4997381;28;20196;-70
2023/07/30 02:06:48;;;;;;;1.70;1.60;;;21.60;90.00;;;;;;4994085;28;20205;-68
2023/07/30 02:09:14;;;;;;;1.83;1.73;;;21.60;90.00;;;;;;4989393;28;20673;-70
2023/07/30 02:11:40;;;;;;;1.83;1.73;;;21.60;90.00;;;;;;4989456;28;20188;-69
2023/07/30 02:14:06;;;;;;;1.80;1.70;;;21.60;90.00;;;;;;5006920;28;20303;-69
2023/07/30 02:16:32;;;;;;;1.55;1.45;;;21.60;90.00;;;;;;4977384;28;20259;-70
2023/07/30 02:18:57;;;;;;;2.22;1.70;;;21.60;90.00;;;;;;4985844;28;20193;-69
2023/07/30 02:21:23;;;;;;;1.67;1.58;;;21.60;90.00;;;;;;5002197;28;20197;-69
2023/07/30 02:23:49;;;;;;;2.00;1.90;;;21.60;90.00;;;;;;4985664;28;20189;-70
2023/07/30 02:26:14;;;;;;;1.63;1.52;;;21.60;90.00;;;;;;4993494;28;20200;-70
2023/07/30 02:28:40;;;;;;;1.65;1.55;;;21.60;90.00;;;;;;4993848;28;20190;-69
2023/07/30 02:31:06;;;;;;;1.70;1.60;;;21.60;90.00;;;;;;4992639;28;20235;-69
2023/07/30 02:33:31;;;;;;;1.92;1.83;;;21.60;89.90;;;;;;4972565;28;20219;-70
2023/07/30 02:35:57;;;;;;;1.80;1.70;;;21.60;90.00;;;;;;4980637;28;20180;-70
2023/07/30 02:38:23;;;;;;;2.08;1.90;;;21.60;90.20;;;;;;4987614;28;20612;-70
2023/07/30 02:40:49;;;;;;;2.20;2.03;;;21.60;89.80;;;;;;4985865;28;20188;-69
2023/07/30 02:43:14;;;;;;;1.90;1.80;;;21.60;89.80;;;;;;4984422;28;20849;-70
2023/07/30 02:45:40;;;;;;;1.80;1.70;;;21.60;89.70;;;;;;4979648;28;20187;-67
2023/07/30 02:48:06;;;;;;;1.88;1.77;;;21.60;89.70;;;;;;4973740;28;20287;-71
2023/07/30 02:50:32;;;;;;;1.80;1.70;;;21.60;89.70;;;;;;5009084;28;20234;-70
2023/07/30 02:52:57;;;;;;;1.65;1.55;;;21.60;89.70;;;;;;5007650;28;20185;-69
2023/07/30 02:55:23;;;;;;;2.08;1.80;;;21.60;89.60;;;;;;4982591;28;20208;-69
2023/07/30 02:57:49;;;;;;;1.83;1.73;;;21.60;89.50;;;;;;4982216;28;20208;-70
2023/07/30 03:00:15;;;;;;;1.90;1.80;;;21.60;89.50;;;;;;4969170;28;20192;-69
2023/07/30 03:02:41;;;;;;;2.25;1.75;;;21.60;89.50;;;;;;4976879;28;20200;-69
2023/07/30 03:05:07;;;;;;;1.50;1.40;;;21.60;89.40;;;;;;5007936;28;20196;-70
2023/07/30 03:07:33;;;;;;;1.70;1.60;;;21.50;89.20;;;;;;4974874;28;20224;-68
2023/07/30 03:09:59;;;;;;;2.40;1.90;;;21.60;89.40;;;;;;4974366;28;20208;-70
2023/07/30 03:12:25;;;;;;;1.83;1.60;;;21.60;89.30;;;;;;4995410;28;20192;-69
2023/07/30 03:14:51;;;;;;;1.65;1.55;;;21.60;89.30;;;;;;4993031;28;20196;-71
2023/07/30 03:17:16;;;;;;;1.80;1.70;;;21.60;89.20;;;;;;4992428;28;20196;-72
2023/07/30 03:19:42;;;;;;;2.40;1.60;;;21.50;89.10;;;;;;4962906;28;20244;-69
2023/07/30 03:22:08;;;;;;;1.50;1.40;;;21.60;89.20;;;;;;4989367;28;20584;-69
2023/07/30 03:24:33;;;;;;;2.00;1.80;;;21.60;89.20;;;;;;4978098;28;20250;-69
2023/07/30 03:26:59;;;;;;;1.80;1.67;;;21.50;89.00;;;;;;4992412;28;20215;-70
2023/07/30 03:29:25;;;;;;;2.10;1.90;;;21.60;89.10;;;;;;5000869;28;20541;-70
2023/07/30 03:31:50;;;;;;;1.80;1.70;;;21.60;89.10;;;;;;4989022;28;20184;-69
2023/07/30 03:34:16;;;;;;;1.98;1.88;;;21.50;89.00;;;;;;4988584;28;20188;-69
2023/07/30 03:36:42;;;;;;;1.42;1.33;;;21.50;89.60;;;;;;4970272;28;20204;-69
2023/07/30 03:39:08;;;;;;;1.70;1.60;;;21.50;88.90;;;;;;4979244;28;20199;-69
2023/07/30 03:41:35;;;;;;;1.67;1.58;;;21.50;88.90;;;;;;4976070;28;20212;-69
2023/07/30 03:44:00;;;;;;;1.63;1.52;;;21.50;88.80;;;;;;4989538;28;20196;-69
2023/07/30 03:46:26;;;;;;;2.17;1.70;;;21.60;88.90;;;;;;4967491;28;20217;-70
2023/07/30 03:48:53;;;;;;;1.60;1.50;;;21.50;88.70;;;;;;4996695;28;20573;-69
2023/07/30 03:51:19;;;;;;;1.48;1.38;;;21.50;88.70;;;;;;4987750;28;20221;-70
2023/07/30 03:53:44;;;;;;;1.90;1.80;;;21.50;88.70;;;;;;4992469;28;20235;-70
2023/07/30 03:56:10;;;;;;;2.05;1.80;;;21.50;88.60;;;;;;5005679;28;20655;-70
2023/07/30 03:58:36;;;;;;;1.75;1.60;;;21.50;88.60;;;;;;4993432;28;20204;-70
2023/07/30 04:01:02;;;;;;;1.67;1.58;;;21.50;88.50;;;;;;4981492;28;20267;-70
2023/07/30 04:03:28;;;;;;;1.80;1.70;;;21.50;88.50;;;;;;4994410;28;20211;-70
2023/07/30 04:05:54;;;;;;;1.70;1.60;;;21.50;88.50;;;;;;4996972;28;20207;-70
2023/07/30 04:08:20;;;;;;;1.92;1.83;;;21.50;88.50;;;;;;4979616;28;20213;-69
2023/07/30 04:10:46;;;;;;;1.65;1.55;;;21.50;88.30;;;;;;4991952;28;20208;-70
2023/07/30 04:13:12;;;;;;;1.45;1.35;;;21.50;88.30;;;;;;4982140;28;20540;-70
2023/07/30 04:15:38;;;;;;;1.70;1.60;;;21.50;88.40;;;;;;5003069;28;20184;-70
2023/07/30 04:18:04;;;;;;;1.40;1.30;;;21.50;88.20;;;;;;4995088;28;20211;-70
2023/07/30 04:20:30;;;;;;;1.92;1.83;;;21.50;88.30;;;;;;5011176;28;20200;-70
2023/07/30 04:22:55;;;;;;;1.75;1.65;;;21.50;88.30;;;;;;5007569;28;20279;-70
2023/07/30 04:25:21;;;;;;;1.50;1.40;;;21.50;88.30;;;;;;4990925;28;20690;-70
2023/07/30 04:27:47;;;;;;;1.75;1.65;;;21.50;88.30;;;;;;4986287;28;20699;-70
2023/07/30 04:30:13;;;;;;;1.60;1.50;;;21.50;88.40;;;;;;4991472;28;20224;-70
2023/07/30 04:32:39;;;;;;;1.80;1.70;;;21.50;88.30;;;;;;4970579;28;20188;-70
2023/07/30 04:35:05;;;;;;;1.65;1.55;;;21.50;88.30;;;;;;4981257;28;20203;-70
2023/07/30 04:37:31;;;;;;;1.75;1.45;;;21.50;88.30;;;;;;4982811;28;20208;-69
2023/07/30 04:39:57;;;;;;;2.00;1.73;;;21.50;88.40;;;;;;5006912;28;20200;-70
2023/07/30 04:42:23;;;;;;;1.60;1.50;;;21.50;88.30;;;;;;5006948;28;20199;-69
2023/07/30 04:44:49;;;;;;;1.27;1.17;;;21.50;88.30;;;;;;4978048;28;20207;-69
2023/07/30 04:47:16;;;;;;;1.60;1.50;;;21.50;88.30;;;;;;4994151;28;20686;-70
2023/07/30 04:49:42;;;;;;;1.75;1.63;;;21.50;88.30;;;;;;4984341;28;20216;-70
2023/07/30 04:52:08;;;;;;;1.90;1.80;;;21.50;88.20;;;;;;4971684;28;20258;-71
2023/07/30 04:54:36;;;;;;;1.30;1.20;;;21.50;88.30;;;;;;4985941;28;20224;-71
2023/07/30 04:57:02;;;;;;;1.48;1.38;;;21.50;88.30;;;;;;5003310;28;20218;-70
2023/07/30 04:59:28;;;;;;;1.70;1.60;;;21.50;88.30;;;;;;4979551;28;20235;-73
2023/07/30 05:01:54;;;;;;;1.90;1.77;;;21.50;88.30;;;;;;4993746;28;20195;-71
2023/07/30 05:04:20;;;;;;;1.60;1.50;;;21.50;88.30;;;;;;4968287;28;20199;-70
2023/07/30 05:06:45;;;;;;;1.40;1.30;;;21.50;88.30;;;;;;5009848;28;20212;-69
2023/07/30 05:09:11;;;;;;;1.60;1.50;;;21.50;88.30;;;;;;4988921;28;20192;-70
2023/07/30 05:11:38;;;;;;;1.67;1.58;;;21.50;88.20;;;;;;4983673;28;20243;-70
2023/07/30 05:14:04;;;;;;;2.72;1.17;;;21.50;88.30;;;;;;5003125;28;20564;-70
2023/07/30 05:16:30;;;;;;;2.55;1.38;;;21.50;88.20;;;;;;4969635;28;20303;-69
2023/07/30 05:18:56;;;;;;;1.63;1.45;;;21.50;88.30;;;;;;4995617;28;20192;-70
2023/07/30 05:21:22;;;;;;;1.48;1.38;;;21.50;88.30;;;;;;5011707;28;20191;-70
2023/07/30 05:23:47;;;;;;;1.60;1.50;;;21.50;88.30;;;;;;4991735;28;20279;-69
2023/07/30 05:26:13;;;;;;;1.58;1.48;;;21.50;88.30;;;;;;4998771;28;20220;-70
2023/07/30 05:28:39;;;;;;;1.35;1.25;;;21.50;88.30;;;;;;4999880;28;20192;-70
2023/07/30 05:31:04;;;;;;;1.95;1.20;;;21.50;88.30;;;;;;4991276;28;20271;-69
2023/07/30 05:33:30;;;;;;;1.35;1.25;;;21.50;88.30;;;;;;5011394;28;20210;-69
2023/07/30 05:35:56;;;;;;;1.40;1.30;;;21.50;88.30;;;;;;5010229;28;20187;-69
2023/07/30 05:38:22;;;;;;;1.60;1.50;;;21.50;88.30;;;;;;4977630;28;20258;-69
2023/07/30 05:40:48;;;;;;;1.30;1.20;;;21.50;88.30;;;;;;4994053;28;20207;-69
2023/07/30 05:43:13;;;;;;;1.25;1.15;;;21.50;88.40;;;;;;4990642;28;20203;-69
2023/07/30 05:45:39;;;;;;;1.50;1.40;;;21.50;88.40;;;;;;4987829;28;20227;-69
2023/07/30 05:48:05;;;;;;;1.65;1.55;;;21.50;88.40;;;;;;4978896;28;20231;-69
2023/07/30 05:50:31;;;;;;;1.48;1.38;;;21.50;88.30;;;;;;5002337;28;20217;-70
2023/07/30 05:52:56;;;;;;;1.90;1.55;;;21.50;88.40;;;;;;5001741;28;20271;-70
2023/07/30 05:55:22;;;;;;;1.70;1.60;;;21.50;88.40;;;;;;4962923;28;20193;-69
2023/07/30 05:57:48;;;;;;;1.42;1.30;;;21.50;88.50;;;;;;5009378;28;20212;-69
2023/07/30 06:00:14;;;;;;;1.50;1.40;;;21.50;88.50;;;;;;4985741;28;20194;-70
2023/07/30 06:02:40;;;;;;;3.40;1.50;;;21.50;88.50;;;;;;4985446;28;20729;-70
2023/07/30 06:05:06;;;;;;;1.40;1.30;;;21.50;88.60;;;;;;5011321;28;20196;-70
2023/07/30 06:07:31;;;;;;;1.33;1.23;;;21.50;88.60;;;;;;4993284;28;20211;-69
2023/07/30 06:09:57;;;;;;;1.60;1.50;;;21.50;88.60;;;;;;4974430;28;20215;-69
2023/07/30 06:12:23;;;;;;;1.60;1.50;;;21.50;88.60;;;;;;5005148;28;20188;-69
2023/07/30 06:14:49;;;;;;;1.38;1.27;;;21.50;88.60;;;;;;4967876;28;20188;-70
2023/07/30 06:17:14;;;;;;;1.33;1.23;;;21.50;88.70;;;;;;4971164;28;20216;-70
2023/07/30 06:19:40;;;;;;;1.80;1.70;;;21.50;88.70;;;;;;4980692;28;20197;-70
2023/07/30 06:22:06;;;;;;;1.63;1.52;;;21.50;88.70;;;;;;4993118;28;20208;-69
2023/07/30 06:24:31;;;;;;;1.63;1.52;;;21.50;88.70;;;;;;4986076;28;20196;-69
2023/07/30 06:26:57;;;;;;;1.50;1.40;;;21.50;88.70;;;;;;4961075;28;20758;-71
2023/07/30 06:29:23;;;;;;;1.83;1.58;;;21.50;88.80;;;;;;4992019;28;20196;-70
2023/07/30 06:31:49;;;;;;;1.70;1.60;;;21.50;89.00;;;;;;4990110;28;20192;-70
2023/07/30 06:34:14;;;;;;;1.50;1.40;;;21.50;88.90;;;;;;4983307;28;20220;-69
2023/07/30 06:36:40;;;;;;;1.10;1.10;;;21.50;89.80;;;;;;4995384;28;20208;-70
2023/07/30 06:39:06;;;;;;;1.52;1.42;;;21.50;89.00;;;;;;4996790;28;20200;-69
2023/07/30 06:41:32;;;;;;;1.52;1.42;;;21.50;88.90;;;;;;4990112;28;20191;-70
2023/07/30 06:43:58;;;;;;;1.50;1.40;;;21.50;89.10;;;;;;5007781;28;20206;-70
2023/07/30 06:46:23;;;;;;;1.63;1.52;;;21.50;89.00;;;;;;4985209;28;20209;-68
2023/07/30 06:48:49;;;;;;;1.33;1.23;;;21.50;89.00;;;;;;4986998;28;20197;-70
2023/07/30 06:51:19;;;;;;;1.70;1.60;;;21.50;89.10;;;;;;4980670;28;20243;-70
2023/07/30 06:53:45;;;;;;;1.63;1.52;;;21.50;89.20;;;;;;4992234;28;20554;-70
2023/07/30 06:56:10;;;;;;;1.50;1.40;;;21.50;89.20;;;;;;4979154;28;20181;-69
2023/07/30 06:58:36;;;;;;;2.20;1.65;;;21.50;89.30;;;;;;4993266;28;20212;-69
2023/07/30 07:01:02;;;;;;;1.65;1.50;;;21.50;89.30;;;;;;4983451;28;20192;-70
2023/07/30 07:03:28;;;;;;;1.55;1.38;;;21.50;89.40;;;;;;5004625;28;20234;-70
2023/07/30 07:05:55;;;;;;;1.60;1.50;;;21.50;89.40;;;;;;4994233;28;20219;-70
2023/07/30 07:08:22;;;;;;;1.42;1.25;;;21.50;89.40;;;;;;4987380;28;20208;-69
2023/07/30 07:10:48;;;;;;;1.50;1.40;;;21.50;89.30;;;;;;4977931;28;20217;-69
2023/07/30 07:13:15;;;;;;;1.35;1.25;;;21.50;89.30;;;;;;4973602;28;20272;-69
2023/07/30 07:15:42;;;;;;;2.13;1.45;;;21.50;89.40;;;;;;4992562;28;20219;-71
2023/07/30 07:18:08;;;;;;;1.70;1.60;;;21.50;89.50;;;;;;4981372;28;20232;-69
2023/07/30 07:20:34;;;;;;;1.60;1.50;;;21.50;89.60;;;;;;5001275;28;20193;-70
2023/07/30 07:22:59;;;;;;;1.40;1.30;;;21.50;89.40;;;;;;5009234;28;20207;-70
2023/07/30 07:25:25;;;;;;;1.60;1.50;;;21.50;89.50;;;;;;4990711;28;20183;-69
2023/07/30 07:27:51;;;;;;;1.30;1.20;;;21.50;89.40;;;;;;4968688;28;20549;-69
2023/07/30 07:30:17;;;;;;;1.50;1.40;;;21.60;89.70;;;;;;4991177;28;20224;-69
2023/07/30 07:32:43;;;;;;;1.30;1.20;;;21.60;89.40;;;;;;5002553;28;20192;-70
2023/07/30 07:35:09;;;;;;;1.50;1.40;;;21.60;89.70;;;;;;5004618;28;20276;-68
2023/07/30 07:37:35;;;;;;;1.80;1.63;;;21.60;89.60;;;;;;4982627;28;20216;-70
2023/07/30 07:40:01;;;;;;;1.50;1.40;;;21.60;89.90;;;;;;4984901;28;20204;-69
2023/07/30 07:42:26;;;;;;;1.48;1.38;;;21.60;89.60;;;;;;4990859;28;20282;-70
2023/07/30 07:44:52;;;;;;;1.67;1.58;;;21.60;89.80;;;;;;4982318;28;20191;-70
2023/07/30 07:47:18;;;;;;;1.70;1.60;;;21.60;89.70;;;;;;4992581;28;20220;-69
2023/07/30 07:49:44;;;;;;;1.35;1.25;;;21.60;89.80;;;;;;5002645;28;20195;-71
2023/07/30 07:52:09;;;;;;;1.55;1.05;;;21.60;89.50;;;;;;4980753;28;20195;-69
2023/07/30 07:54:35;;;;;;;1.48;1.38;;;21.60;90.30;;;;;;4979468;28;20203;-70
2023/07/30 07:57:01;;;;;;;1.60;1.50;;;21.60;89.70;;;;;;4979335;28;20294;-70
2023/07/30 07:59:27;;;;;;;1.55;1.45;;;21.60;89.50;;;;;;4981705;28;20195;-69
2023/07/30 08:01:53;;;;;;;1.45;1.35;;;21.60;89.50;;;;;;5001234;28;20201;-70
2023/07/30 08:04:21;;;;;;;1.33;1.25;;;21.60;89.50;;;;;;4959775;28;20207;-70
2023/07/30 08:06:47;;;;;;;1.85;1.40;;;21.60;89.60;;;;;;4975434;28;20216;-68
2023/07/30 08:09:13;;;;;;;1.50;1.40;;;21.60;89.40;;;;;;4979763;28;20184;-69
2023/07/30 08:11:39;;;;;;;1.42;1.33;;;21.60;89.50;;;;;;4971831;28;20217;-70
2023/07/30 08:14:05;;;;;;;1.58;1.48;;;21.70;89.30;;;;;;4978272;28;20191;-68
2023/07/30 08:16:30;;;;;;;1.75;1.30;;;21.70;89.70;;;;;;4986403;28;20206;-70
2023/07/30 08:18:56;;;;;;;2.10;1.40;;;21.70;89.60;;;;;;4985594;28;20189;-69
2023/07/30 08:21:22;;;;;;;1.95;1.40;;;21.70;89.40;;;;;;4984016;28;20181;-70
2023/07/30 08:23:47;;;;;;;1.55;1.45;;;21.70;89.40;;;;;;4999813;28;20180;-69
2023/07/30 08:26:13;;;;;;;1.50;1.40;;;21.70;89.60;;;;;;5003425;28;20555;-70
2023/07/30 08:28:39;;;;;;;1.98;1.50;;;21.70;89.50;;;;;;4980081;28;20200;-69
2023/07/30 08:31:05;;;;;;;2.20;2.00;;;21.70;89.80;;;;;;4975269;28;20227;-70
2023/07/30 08:33:32;;;;;;;1.20;1.10;;;21.70;89.50;;;;;;4983742;28;20189;-70
2023/07/30 08:36:01;;;;;;;1.50;1.40;;;21.70;89.40;;;;;;5008964;28;20187;-69
2023/07/30 08:38:29;;;;;;;1.92;1.50;;;21.70;89.70;;;;;;4973318;28;20188;-70
2023/07/30 08:40:54;;;;;;;2.70;1.70;;;21.70;89.80;;;;;;4973327;28;20189;-70
2023/07/30 08:43:20;;;;;;;1.40;1.30;;;21.70;89.60;;;;;;4986273;28;20202;-69
2023/07/30 08:45:46;;;;;;;1.60;1.50;;;21.70;89.30;;;;;;4978919;28;20199;-70
2023/07/30 08:48:13;;;;;;;1.75;1.60;;;21.70;89.10;;;;;;5010677;28;20207;-69
2023/07/30 08:50:39;;;;;;;1.60;1.50;;;21.80;89.00;;;;;;4975110;28;20217;-70
2023/07/30 08:53:07;;;;;;;1.60;1.50;;;21.80;88.80;;;;;;5000609;28;20207;-70
2023/07/30 08:55:35;;;;;;;1.40;1.30;;;21.80;89.00;;;;;;4988767;28;20247;-70
2023/07/30 08:58:05;;;;;;;1.40;1.30;;;21.80;89.20;;;;;;5007304;28;20244;-70
2023/07/30 09:00:38;;;;;;;1.55;1.45;;;21.90;88.90;;;;;;4967126;28;20189;-71
2023/07/30 09:03:04;;;;;;;1.50;1.40;;;21.80;88.80;;;;;;4991014;28;20212;-70
2023/07/30 09:05:31;;;;;;;1.95;1.70;;;21.80;89.00;;;;;;4966903;28;20191;-69
2023/07/30 09:07:57;;;;;;;2.15;1.80;;;21.80;89.20;;;;;;4984654;28;20291;-70
2023/07/30 09:10:25;;;;;;;1.30;1.20;;;21.80;89.40;;;;;;4978582;28;20216;-70
2023/07/30 09:12:58;;;;;;;1.60;1.48;;;21.80;89.40;;;;;;4998756;28;20652;-70
2023/07/30 09:15:38;;;;;;;2.60;1.50;;;21.80;89.20;;;;;;4996977;28;20207;-70
2023/07/30 09:18:05;;;;;;;1.48;1.38;;;21.80;89.50;;;;;;4986131;28;20218;-70
2023/07/30 09:20:38;;;;;;;1.55;1.45;;;21.80;89.20;;;;;;4992898;28;20211;-69
2023/07/30 09:23:07;;;;;;;2.08;1.55;;;21.80;89.30;;;;;;4991956;28;20227;-69
2023/07/30 09:25:33;;;;;;;1.40;1.30;;;21.80;89.70;;;;;;4992216;28;20180;-70
2023/07/30 09:27:59;;;;;;;1.98;1.40;;;21.80;89.30;;;;;;4985933;28;20215;-69
2023/07/30 09:30:27;;;;;;;2.67;1.90;;;21.80;89.00;;;;;;4978084;28;20242;-69
2023/07/30 09:32:57;;;;;;;1.98;1.77;;;21.90;88.90;;;;;;5002765;28;20185;-70
2023/07/30 09:35:25;;;;;;;1.50;1.40;;;21.90;89.40;;;;;;4985995;28;20191;-70
2023/07/30 09:38:01;;;;;;;2.97;1.55;;;21.90;89.10;;;;;;4966518;28;20207;-69
2023/07/30 09:40:38;;;;;;;2.10;1.50;;;21.80;89.20;;;;;;5003631;28;20196;-69
2023/07/30 09:43:05;;;;;;;2.80;1.67;;;21.90;89.50;;;;;;4976192;28;20188;-69
2023/07/30 09:45:35;;;;;;;2.10;1.42;;;21.90;89.00;;;;;;5003402;28;20705;-70
2023/07/30 09:48:04;;;;;;;2.92;1.38;;;21.90;88.90;;;;;;4983963;28;20215;-69
2023/07/30 09:50:31;;;;;;;1.77;1.65;;;21.90;89.10;;;;;;4981192;28;20205;-69
2023/07/30 09:53:01;;;;;;;2.10;1.27;;;21.90;89.10;;;;;;4974024;28;20184;-69
2023/07/30 09:55:27;;;;;;;3.17;1.40;;;21.80;89.00;;;;;;4988516;28;20219;-69
2023/07/30 09:57:53;;;;;;;2.47;1.50;;;21.80;89.30;;;;;;4981804;28;20216;-70
2023/07/30 10:00:19;;;;;;;1.70;1.40;;;21.80;89.20;;;;;;4997509;28;20721;-69
2023/07/30 10:02:48;;;;;;;1.50;1.40;;;21.90;90.00;;;;;;5014212;28;20204;-69
2023/07/30 10:05:20;;;;;;;2.40;1.48;;;21.80;89.20;;;;;;4996337;28;20193;-69
2023/07/30 10:08:02;;;;;;;1.80;1.70;;;21.90;89.70;;;;;;5009968;28;20220;-70
2023/07/30 10:10:30;;;;;;;1.65;1.55;;;21.80;89.20;;;;;;4994181;28;20255;-70
2023/07/30 10:13:04;;;;;;;1.60;1.40;;;21.80;89.30;;;;;;5011423;28;20211;-70
2023/07/30 10:15:35;;;;;;;2.88;1.50;;;21.80;89.40;;;;;;4966245;28;20183;-69
2023/07/30 10:18:01;;;;;;;2.53;1.95;;;21.90;89.30;;;;;;4980822;28;20204;-69
2023/07/30 10:20:29;;;;;;;2.58;1.30;;;21.90;89.00;;;;;;4986213;28;20193;-69
2023/07/30 10:22:58;;;;;;;1.52;1.38;;;21.90;88.80;;;;;;4993524;28;20197;-69
2023/07/30 10:25:46;;;;;;;2.10;1.52;;;21.90;88.70;;;;;;4994015;28;20189;-70
2023/07/30 10:28:30;;;;;;;1.30;1.20;;;21.90;88.70;;;;;;5001963;28;20221;-70
2023/07/30 10:31:08;;;;;;;8.07;1.48;;;21.90;89.00;;;;;;4982263;28;20220;-70
2023/07/30 10:33:47;;;;;;;1.65;1.33;;;21.90;88.90;;;;;;4985541;28;20216;-70
2023/07/30 10:36:14;;;;;;;1.50;1.40;;;21.90;88.70;;;;;;4993617;28;20192;-70
2023/07/30 10:38:41;;;;;;;1.60;1.50;;;21.90;88.60;;;;;;5007026;28;20184;-69
2023/07/30 10:41:19;;;;;;;1.80;1.60;;;21.90;88.60;;;;;;4966837;28;20220;-69
2023/07/30 10:43:50;;;;;;;1.67;1.58;;;21.90;88.40;;;;;;4988726;28;20190;-69
2023/07/30 10:46:19;;;;;;;1.83;1.50;;;21.90;88.50;;;;;;4988312;28;20224;-70
2023/07/30 10:48:48;;;;;;;1.45;1.35;;;21.90;88.10;;;;;;4999402;28;20193;-69
2023/07/30 10:51:17;;;;;;;1.70;1.60;;;21.90;87.80;;;;;;4993127;28;20224;-70
2023/07/30 10:53:45;;;;;;;1.67;1.50;;;21.90;87.70;;;;;;4990795;28;20176;-70
2023/07/30 10:56:12;;;;;;;1.70;1.50;;;21.90;87.60;;;;;;4988016;28;20188;-69
2023/07/30 10:58:38;;;;;;;1.40;1.20;;;21.90;87.30;;;;;;4996494;28;20633;-70
2023/07/30 11:01:06;;;;;;;1.67;1.58;;;21.90;87.50;;;;;;5012339;28;20228;-69
2023/07/30 11:03:32;;;;;;;2.78;1.75;;;21.90;87.40;;;;;;4988777;28;20195;-70
2023/07/30 11:06:00;;;;;;;1.75;1.55;;;21.90;86.90;;;;;;4980226;28;20189;-69
2023/07/30 11:08:52;;;;;;;1.45;1.35;;;21.90;86.70;;;;;;4976578;28;20227;-70
2023/07/30 11:11:18;;;;;;;2.50;1.50;;;21.90;87.70;;;;;;4967051;28;20221;-69
2023/07/30 11:13:47;;;;;;;1.40;1.30;;;21.80;86.60;;;;;;4976897;28;20730;-70
2023/07/30 11:16:15;;;;;;;1.50;1.40;;;21.90;86.60;;;;;;4986190;28;20203;-69
2023/07/30 11:18:43;;;;;;;1.83;1.30;;;21.90;86.70;;;;;;4981613;28;20260;-69
2023/07/30 11:21:16;;;;;;;1.70;1.58;;;21.90;86.50;;;;;;4987247;28;20188;-69
2023/07/30 11:23:44;;;;;;;2.17;1.40;;;21.90;86.50;;;;;;4981935;28;20196;-69
2023/07/30 11:26:15;;;;;;;2.25;1.50;;;21.90;86.50;;;;;;4995009;28;20192;-70
2023/07/30 11:28:41;;;;;;;2.10;1.33;;;21.90;86.20;;;;;;5005884;28;20191;-69
2023/07/30 11:31:20;;;;;;;1.50;1.40;;;21.90;85.50;;;;;;4987990;28;20208;-70
2023/07/30 11:33:48;;;;;;;2.45;1.70;;;21.90;85.00;;;;;;5012348;28;20223;-69
2023/07/30 11:36:25;;;;;;;1.40;1.30;;;21.90;85.40;;;;;;4985356;28;20199;-70
2023/07/30 11:38:55;;;;;;;1.70;1.60;;;21.90;85.50;;;;;;4968306;28;20196;-69
2023/07/30 11:41:23;;;;;;;1.45;1.35;;;21.90;85.30;;;;;;4976735;28;20204;-72
2023/07/30 11:43:51;;;;;;;1.70;1.50;;;21.90;85.60;;;;;;4996056;28;20195;-70
2023/07/30 11:46:22;;;;;;;1.52;1.42;;;21.90;85.40;;;;;;4985916;28;20290;-69
2023/07/30 11:48:50;;;;;;;1.75;1.50;;;21.90;85.30;;;;;;4981927;28;20188;-69
2023/07/30 11:51:21;;;;;;;1.50;1.40;;;21.90;85.20;;;;;;4987559;28;20223;-69
2023/07/30 11:53:59;;;;;;;1.70;1.60;;;21.90;85.30;;;;;;4979315;28;20192;-69
2023/07/30 11:56:28;;;;;;;1.55;1.20;;;21.90;85.30;;;;;;4992567;28;20211;-69
2023/07/30 11:59:07;;;;;;;1.50;1.40;;;21.90;85.40;;;;;;4993317;28;20185;-69
2023/07/30 12:01:36;;;;;;;1.50;1.40;;;21.90;85.50;;;;;;4986694;28;20199;-69
2023/07/30 12:04:05;;;;;;;1.83;1.50;;;21.90;85.10;;;;;;4979348;28;20189;-69
2023/07/30 12:06:48;;;;;;;2.58;1.48;;;21.90;85.20;;;;;;5003141;28;20244;-67
2023/07/30 12:09:18;;;;;;;1.42;1.33;;;21.90;84.90;;;;;;4990148;28;20193;-70
2023/07/30 12:12:01;;;;;;;1.55;1.45;;;21.90;85.00;;;;;;4981275;28;20223;-69
2023/07/30 12:14:49;;;;;;;1.60;1.50;;;21.90;84.70;;;;;;4986925;28;20727;-69
2023/07/30 12:17:14;;;;;;;1.45;1.35;;;21.90;84.60;;;;;;4982446;28;20212;-69
2023/07/30 12:19:41;;;;;;;1.77;1.67;;;21.90;84.80;;;;;;5004376;28;20194;-68
2023/07/30 12:22:08;;;;;;;1.60;1.50;;;21.90;84.80;;;;;;5005854;28;20279;-69
2023/07/30 12:24:33;;;;;;;1.83;1.30;;;21.90;84.70;;;;;;4995009;28;20192;-69
2023/07/30 12:26:59;;;;;;;1.50;1.40;;;21.90;84.50;;;;;;4977719;28;20195;-69
2023/07/30 12:29:25;;;;;;;1.90;1.70;;;21.90;84.50;;;;;;4977500;28;20215;-70
2023/07/30 12:31:53;;;;;;;2.08;1.98;;;21.90;84.60;;;;;;4988878;28;20310;-69
2023/07/30 12:34:19;;;;;;;1.55;1.45;;;21.90;84.50;;;;;;5001915;28;20199;-69
2023/07/30 12:36:46;;;;;;;1.83;1.73;;;21.90;84.50;;;;;;5004954;28;20278;-69
2023/07/30 12:39:13;;;;;;;1.60;1.50;;;21.90;84.30;;;;;;4962342;28;20255;-68
2023/07/30 12:41:39;;;;;;;1.80;1.70;;;21.90;84.30;;;;;;4992717;28;20243;-68
2023/07/30 12:44:04;;;;;;;2.00;1.90;;;21.90;84.60;;;;;;5003698;28;20188;-69
2023/07/30 12:46:32;;;;;;;1.85;1.52;;;21.90;84.60;;;;;;4985253;28;20223;-70
2023/07/30 12:49:04;;;;;;;2.00;1.80;;;21.90;84.30;;;;;;4980415;28;20199;-70